createdAt,value
2023-05-01T00:03:26.113Z,100432.50
2023-05-01T00:08:30.874Z,100430.52
2023-05-01T00:13:35.642Z,100422.84
2023-05-01T00:18:40.442Z,100424.98
2023-05-01T00:23:45.040Z,100423.95
2023-05-01T00:28:51.240Z,100424.58
2023-05-01T00:33:56.945Z,100423.39
2023-05-01T00:39:01.867Z,100421.05
2023-05-01T00:44:06.667Z,100420.45
2023-05-01T00:49:11.550Z,100418.52
2023-05-01T00:59:06.866Z,100412.69
2023-05-01T01:04:11.752Z,100417.36
2023-05-01T01:09:20.639Z,100415.30
2023-05-01T01:14:43.881Z,100415.41
2023-05-01T01:20:38.781Z,100416.52
2023-05-01T01:26:04.759Z,100410.89
2023-05-01T01:31:22.124Z,100412.00
2023-05-01T01:36:44.017Z,100408.02
2023-05-01T01:41:52.058Z,100405.92
2023-05-01T01:46:57.425Z,100406.05
2023-05-01T01:52:03.455Z,100404.09
2023-05-01T01:57:10.844Z,100405.75
2023-05-01T02:02:19.195Z,100401.21
2023-05-01T02:07:24.762Z,100397.63
2023-05-01T02:12:30.947Z,100390.98
2023-05-01T02:17:38.330Z,100390.64
2023-05-01T02:22:44.392Z,100386.44
2023-05-01T02:27:56.793Z,100385.32
2023-05-01T02:33:01.133Z,100385.96
2023-05-01T02:38:07.199Z,100384.87
2023-05-01T02:43:15.864Z,100386.95
2023-05-01T02:48:24.883Z,100390.58
2023-05-01T02:53:30.377Z,100389.14
2023-05-01T02:58:35.987Z,100383.49
2023-05-01T03:03:41.146Z,100390.61
2023-05-01T03:08:45.873Z,100391.92
2023-05-01T03:13:50.480Z,100391.69
2023-05-01T03:18:54.578Z,100391.50
2023-05-01T03:23:59.658Z,100388.27
2023-05-01T03:29:03.982Z,100385.23
2023-05-01T03:34:08.064Z,100385.70
2023-05-01T03:39:12.940Z,100379.23
2023-05-01T03:44:17.958Z,100378.95
2023-05-01T03:49:22.511Z,100382.62
2023-05-01T03:54:27.591Z,100375.40
2023-05-01T03:59:32.121Z,100377.94
2023-05-01T04:04:36.540Z,100374.85
2023-05-01T04:09:41.807Z,100376.17
2023-05-01T04:14:47.949Z,100370.91
2023-05-01T04:19:55.402Z,100371.16
2023-05-01T04:24:59.973Z,100371.17
2023-05-01T04:30:04.010Z,100371.55
2023-05-01T04:35:10.463Z,100368.42
2023-05-01T04:40:15.781Z,100375.03
2023-05-01T04:45:20.547Z,100371.08
2023-05-01T04:50:25.831Z,100375.40
2023-05-01T04:55:33.990Z,100371.21
2023-05-01T05:00:38.653Z,100371.02
2023-05-01T05:05:43.387Z,100374.56
2023-05-01T05:10:47.265Z,100380.77
2023-05-01T05:15:51.937Z,100380.67
2023-05-01T05:20:57.220Z,100372.71
2023-05-01T05:26:02.636Z,100364.96
2023-05-01T05:31:06.784Z,100357.89
2023-05-01T05:36:12.374Z,100350.06
2023-05-01T05:41:18.070Z,100355.63
2023-05-01T05:46:22.869Z,100339.29
2023-05-01T05:51:29.191Z,100340.89
2023-05-01T05:56:34.212Z,100346.38
2023-05-01T06:01:40.409Z,100345.66
2023-05-01T06:06:46.169Z,100345.41
2023-05-01T06:11:50.911Z,100341.99
2023-05-01T06:16:57.120Z,100337.86
2023-05-01T06:22:02.351Z,100343.50
2023-05-01T06:27:08.145Z,100347.99
2023-05-01T06:32:13.436Z,100345.77
2023-05-01T06:37:19.272Z,100343.08
2023-05-01T06:42:24.114Z,100347.48
2023-05-01T06:47:28.055Z,100344.28
2023-05-01T06:52:32.665Z,100346.23
2023-05-01T06:57:36.982Z,100334.69
2023-05-01T07:02:42.669Z,100327.78
2023-05-01T07:07:58.019Z,100326.99
2023-05-01T07:13:06.270Z,100321.11
2023-05-01T07:18:13.301Z,100325.11
2023-05-01T07:23:18.306Z,100329.30
2023-05-01T07:28:23.608Z,100329.77
2023-05-01T07:33:27.374Z,100328.09
2023-05-01T07:38:33.105Z,100330.60
2023-05-01T07:43:37.669Z,100331.05
2023-05-01T07:48:41.698Z,100333.78
2023-05-01T07:53:48.162Z,100336.39
2023-05-01T07:58:52.632Z,100333.73
2023-05-01T08:03:56.540Z,100333.23
2023-05-01T08:09:01.238Z,100331.36
2023-05-01T08:14:05.233Z,100329.54
2023-05-01T08:19:09.931Z,100332.56
2023-05-01T08:24:13.985Z,100332.75
2023-05-01T08:29:17.597Z,100334.41
2023-05-01T08:34:22.017Z,100333.73
2023-05-01T08:39:26.857Z,100327.88
2023-05-01T08:44:32.363Z,100322.04
2023-05-01T08:49:39.745Z,100321.31
2023-05-01T08:54:45.525Z,100318.41
2023-05-01T08:59:54.156Z,100315.55
2023-05-01T09:05:01.722Z,100308.93
2023-05-01T09:10:07.437Z,100301.34
2023-05-01T09:15:13.857Z,100297.27
2023-05-01T09:20:20.531Z,100290.09
2023-05-01T09:25:25.157Z,100291.25
2023-05-01T09:30:35.914Z,100283.14
2023-05-01T09:35:57.635Z,100286.64
2023-05-01T09:41:07.076Z,100282.15
2023-05-01T09:46:13.009Z,100274.29
2023-05-01T09:51:35.537Z,100275.82
2023-05-01T09:56:49.637Z,100275.67
2023-05-01T10:01:54.278Z,100273.01
2023-05-01T10:06:59.839Z,100273.14
2023-05-01T10:12:04.248Z,100265.89
2023-05-01T10:17:20.660Z,100255.20
2023-05-01T10:22:24.973Z,100243.55
2023-05-01T10:27:29.107Z,100239.70
2023-05-01T10:32:33.547Z,100233.85
2023-05-01T10:38:05.544Z,100232.80
2023-05-01T10:43:16.321Z,100229.59
2023-05-01T10:48:39.146Z,100226.48
2023-05-01T10:53:45.483Z,100225.27
2023-05-01T10:59:07.126Z,100216.52
2023-05-01T11:04:22.579Z,100206.23
2023-05-01T11:09:39.835Z,100206.91
2023-05-01T11:15:06.957Z,100197.17
2023-05-01T11:20:35.062Z,100189.04
2023-05-01T11:25:39.726Z,100182.55
2023-05-01T11:30:44.749Z,100175.39
2023-05-01T11:35:57.431Z,100162.91
2023-05-01T11:41:04.241Z,100156.50
2023-05-01T11:46:08.626Z,100149.14
2023-05-01T11:51:13.456Z,100143.23
2023-05-01T11:56:26.563Z,100141.16
2023-05-01T12:01:40.623Z,100134.30
2023-05-01T12:06:47.267Z,100129.58
2023-05-01T12:11:53.637Z,100127.29
2023-05-01T12:16:58.906Z,100117.19
2023-05-01T12:22:07.744Z,100106.42
2023-05-01T12:27:12.193Z,100097.61
2023-05-01T12:32:17.244Z,100094.02
2023-05-01T12:37:21.154Z,100090.40
2023-05-01T12:42:25.265Z,100082.02
2023-05-01T12:47:38.031Z,100080.45
2023-05-01T12:52:41.902Z,100074.02
2023-05-01T12:57:53.969Z,100059.98
2023-05-01T13:03:05.470Z,100051.40
2023-05-01T13:08:09.896Z,100041.67
2023-05-01T13:13:14.309Z,100039.35
2023-05-01T13:18:18.378Z,100034.19
2023-05-01T13:23:22.366Z,100026.41
2023-05-01T13:28:26.358Z,100015.20
2023-05-01T13:33:33.486Z,100016.64
2023-05-01T13:38:44.633Z,100010.63
2023-05-01T13:43:49.746Z,100000.40
2023-05-01T13:48:54.975Z,99989.30
2023-05-01T13:53:58.947Z,99988.16
2023-05-01T13:59:02.564Z,99976.14
2023-05-01T14:04:11.000Z,99972.20
2023-05-01T14:09:19.856Z,99961.56
2023-05-01T14:14:25.331Z,99952.98
2023-05-01T14:19:29.077Z,99953.98
2023-05-01T14:24:41.549Z,99947.34
2023-05-01T14:29:45.510Z,99943.91
2023-05-01T14:34:49.253Z,99947.66
2023-05-01T14:39:52.800Z,99944.70
2023-05-01T14:44:57.088Z,99933.40
2023-05-01T14:50:01.207Z,99921.07
2023-05-01T14:55:05.627Z,99925.70
2023-05-01T15:00:10.412Z,99922.77
2023-05-01T15:05:16.143Z,99911.27
2023-05-01T15:10:24.770Z,99911.66
2023-05-01T15:15:31.472Z,99909.66
2023-05-01T15:20:37.059Z,99904.02
2023-05-01T15:25:44.822Z,99896.89
2023-05-01T15:30:49.992Z,99891.24
2023-05-01T15:35:55.885Z,99886.52
2023-05-01T15:41:01.495Z,99880.90
2023-05-01T15:46:07.023Z,99871.52
2023-05-01T15:51:12.773Z,99872.15
2023-05-01T15:56:18.208Z,99865.68
2023-05-01T16:01:24.437Z,99868.32
2023-05-01T16:06:31.231Z,99868.92
2023-05-01T16:11:37.282Z,99864.39
2023-05-01T16:16:44.399Z,99856.64
2023-05-01T16:21:50.346Z,99851.77
2023-05-01T16:26:57.711Z,99852.88
2023-05-01T16:32:06.885Z,99853.35
2023-05-01T16:37:19.172Z,99850.06
2023-05-01T16:42:25.908Z,99846.48
2023-05-01T16:47:30.152Z,99844.10
2023-05-01T16:52:37.589Z,99845.32
2023-05-01T16:57:44.641Z,99835.23
2023-05-01T17:02:54.423Z,99832.86
2023-05-01T17:08:00.984Z,99829.05
2023-05-01T17:13:08.315Z,99828.79
2023-05-01T17:18:12.608Z,99830.51
2023-05-01T17:23:17.346Z,99830.98
2023-05-01T17:28:21.132Z,99833.20
2023-05-01T17:33:24.527Z,99828.39
2023-05-01T17:38:29.052Z,99824.67
2023-05-01T17:43:33.170Z,99823.25
2023-05-01T17:48:36.675Z,99819.16
2023-05-01T17:53:41.576Z,99818.16
2023-05-01T17:58:47.512Z,99822.89
2023-05-01T18:03:52.475Z,99822.95
2023-05-01T18:08:59.192Z,99819.30
2023-05-01T18:14:13.104Z,99818.19
2023-05-01T18:19:31.038Z,99815.73
2023-05-01T18:24:51.504Z,99815.79
2023-05-01T18:30:00.989Z,99811.23
2023-05-01T18:35:05.695Z,99811.53
2023-05-01T18:40:10.849Z,99811.78
2023-05-01T18:45:20.620Z,99814.20
2023-05-01T18:50:27.264Z,99816.05
2023-05-01T18:55:31.637Z,99813.73
2023-05-01T19:00:35.914Z,99813.16
2023-05-01T19:05:43.206Z,99813.74
2023-05-01T19:10:46.942Z,99818.59
2023-05-01T19:15:54.245Z,99818.61
2023-05-01T19:20:58.676Z,99817.17
2023-05-01T19:26:07.264Z,99817.52
2023-05-01T19:31:14.652Z,99814.25
2023-05-01T19:36:18.949Z,99814.30
2023-05-01T19:41:25.440Z,99812.85
2023-05-01T19:46:30.657Z,99813.08
2023-05-01T19:51:35.034Z,99810.23
2023-05-01T19:56:44.098Z,99810.91
2023-05-01T20:02:01.547Z,99808.30
2023-05-01T20:07:06.777Z,99803.59
2023-05-01T20:12:12.506Z,99801.27
2023-05-01T20:17:17.814Z,99802.39
2023-05-01T20:22:24.236Z,99804.59
2023-05-01T20:27:30.266Z,99798.22
2023-05-01T20:32:43.538Z,99790.10
2023-05-01T20:37:48.994Z,99788.04
2023-05-01T20:42:54.330Z,99791.38
2023-05-01T20:47:58.973Z,99789.86
2023-05-01T20:53:02.633Z,99788.67
2023-05-01T20:58:07.742Z,99786.27
2023-05-01T21:03:11.474Z,99784.47
2023-05-01T21:08:15.535Z,99790.36
2023-05-01T21:13:21.683Z,99792.27
2023-05-01T21:18:27.575Z,99789.95
2023-05-01T21:23:31.281Z,99789.46
2023-05-01T21:28:36.210Z,99794.66
2023-05-01T21:33:41.396Z,99794.67
2023-05-01T21:38:46.545Z,99785.91
2023-05-01T21:43:51.433Z,99787.90
2023-05-01T21:48:57.027Z,99780.05
2023-05-01T21:54:02.897Z,99782.09
2023-05-01T21:59:06.874Z,99785.50
2023-05-01T22:04:15.863Z,99784.84
2023-05-01T22:09:20.097Z,99785.90
2023-05-01T22:14:30.797Z,99783.59
2023-05-01T22:19:46.404Z,99783.14
2023-05-01T22:24:51.606Z,99778.14
2023-05-01T22:29:58.021Z,99776.33
2023-05-01T22:35:03.846Z,99775.08
2023-05-01T22:40:09.878Z,99772.19
2023-05-01T22:45:15.525Z,99770.76
2023-05-01T22:50:19.532Z,99765.38
2023-05-01T22:55:23.982Z,99768.86
2023-05-01T23:00:27.789Z,99762.94
2023-05-01T23:05:32.465Z,99761.61
2023-05-01T23:10:44.375Z,99759.55
2023-05-01T23:15:51.402Z,99760.95
2023-05-01T23:20:56.115Z,99756.19
2023-05-01T23:26:01.445Z,99754.34
2023-05-01T23:31:07.017Z,99749.06
2023-05-01T23:36:12.969Z,99742.05
2023-05-01T23:41:18.392Z,99735.48
2023-05-01T23:46:24.673Z,99736.30
2023-05-01T23:51:29.839Z,99734.74
2023-05-01T23:56:34.207Z,99731.45
